Time;durP1;ratioP1;P1;durP2;ratioP2;P2;SDS_P1;SDS_P2;PMS_P1;PMS_P2;Temp;Humidity;BMP_temperature;BMP_pressure;BME280_temperature;BME280_humidity;BME280_pressure;Samples;Min_cycle;Max_cycle;Signal;HPM_P1;HPM_P2
2022/09/03 00:02:08;;;;;;;6.85;3.38;;;;;;;22.45;44.19;100376.94;20650546;28;20413;-73
2022/09/03 00:12:23;;;;;;;4.22;2.78;;;;;;;22.34;44.44;100378.66;20645655;28;20476;-73
2022/09/03 00:22:32;;;;;;;4.07;2.75;;;;;;;22.29;45.02;100378.22;20647231;28;20046;-73
2022/09/03 00:32:46;;;;;;;5.10;3.20;;;;;;;22.21;44.86;100372.72;20639989;28;20042;-74
2022/09/03 00:43:02;;;;;;;4.55;2.90;;;;;;;22.15;45.24;100371.41;20634760;28;22397;-74
2022/09/03 00:53:36;;;;;;;4.38;3.08;;;;;;;22.13;45.50;100385.69;20639359;28;20050;-73
2022/09/03 01:03:53;;;;;;;6.50;3.25;;;;;;;22.06;45.63;100382.72;21465573;22;20064;-75
2022/09/03 01:14:13;;;;;;;6.18;3.10;;;;;;;22.01;45.20;100380.47;20625273;28;20038;-76
2022/09/03 01:24:31;;;;;;;6.45;2.90;;;;;;;21.90;45.41;100398.97;20647385;28;20132;-76
2022/09/03 01:34:58;;;;;;;6.43;3.40;;;;;;;21.87;45.42;100397.41;20651734;28;20050;-75
2022/09/03 01:45:29;;;;;;;5.30;3.05;;;;;;;21.81;45.50;100399.69;20652248;28;20053;-74
2022/09/03 01:56:12;;;;;;;4.18;3.00;;;;;;;21.74;46.03;100400.16;20649238;28;20195;-77
2022/09/03 02:06:13;;;;;;;5.43;2.78;;;;;;;21.71;45.68;100407.47;20595978;28;20172;-76
2022/09/03 02:16:19;;;;;;;4.20;3.00;;;;;;;21.71;45.79;100412.75;20647311;28;20875;-78
2022/09/03 02:26:22;;;;;;;5.90;3.17;;;;;;;21.64;45.56;100416.84;20648405;28;20049;-75
2022/09/03 02:36:33;;;;;;;4.97;3.05;;;;;;;21.53;45.56;100415.88;20639191;28;20057;-77
2022/09/03 02:46:56;;;;;;;6.70;3.38;;;;;;;21.51;45.82;100409.03;20647973;28;20045;-74
2022/09/03 02:56:57;;;;;;;5.35;3.17;;;;;;;21.41;45.87;100419.44;20659621;28;20049;-78
2022/09/03 03:06:58;;;;;;;5.20;3.13;;;;;;;21.33;45.71;100417.41;20654090;28;20236;-76
2022/09/03 03:16:58;;;;;;;6.55;3.03;;;;;;;21.31;45.94;100415.84;20660674;28;20061;-76
2022/09/03 03:26:58;;;;;;;5.82;3.30;;;;;;;21.26;45.87;100424.09;20664093;28;20511;-74
2022/09/03 03:36:59;;;;;;;6.65;2.95;;;;;;;21.21;45.91;100431.53;20650233;28;20039;-74
2022/09/03 03:46:59;;;;;;;7.68;3.35;;;;;;;21.17;46.14;100430.91;20650429;28;20063;-74
2022/09/03 03:57:00;;;;;;;4.90;3.15;;;;;;;21.09;45.72;100447.31;20648224;28;20125;-74
2022/09/03 04:07:00;;;;;;;6.78;3.60;;;;;;;21.01;46.00;100440.97;20652171;28;20041;-74
2022/09/03 04:17:01;;;;;;;6.28;3.47;;;;;;;20.96;46.20;100454.47;20648406;28;20820;-78
2022/09/03 04:27:03;;;;;;;15.13;3.40;;;;;;;20.97;46.56;100461.41;20650753;28;20069;-78
2022/09/03 04:37:03;;;;;;;6.18;3.28;;;;;;;20.93;46.58;100459.94;20647105;28;20057;-76
2022/09/03 04:47:04;;;;;;;7.78;3.65;;;;;;;20.90;46.74;100476.81;20652434;28;20042;-78
2022/09/03 04:57:04;;;;;;;7.43;3.97;;;;;;;20.89;46.61;100480.38;20669656;28;24695;-79
2022/09/03 05:07:05;;;;;;;6.97;3.60;;;;;;;20.88;47.00;100477.88;20677653;28;20303;-78
2022/09/03 05:17:05;;;;;;;6.22;3.38;;;;;;;20.87;47.05;100473.56;20666812;28;20034;-79
2022/09/03 05:27:06;;;;;;;5.57;3.40;;;;;;;20.88;47.56;100486.59;20652013;28;20046;-79
2022/09/03 05:37:06;;;;;;;5.82;3.92;;;;;;;20.91;47.81;100481.13;20658633;28;20415;-79
2022/09/03 05:47:07;;;;;;;9.07;4.70;;;;;;;20.93;48.02;100476.59;20693395;28;20038;-79
2022/09/03 05:57:07;;;;;;;7.40;4.35;;;;;;;20.98;48.12;100472.75;20678092;28;20591;-76
2022/09/03 06:07:08;;;;;;;7.70;4.15;;;;;;;21.04;47.39;100491.56;20619528;28;1151726;-77
2022/09/03 06:17:10;;;;;;;6.20;3.58;;;;;;;20.97;47.76;100490.38;20683608;28;20049;-77
2022/09/03 06:27:10;;;;;;;15.10;4.78;;;;;;;20.98;47.84;100481.50;20677710;28;20069;-79
2022/09/03 06:37:11;;;;;;;7.50;4.30;;;;;;;20.94;47.71;100477.41;20685985;28;20061;-81
2022/09/03 06:47:11;;;;;;;7.45;4.32;;;;;;;20.96;47.63;100467.63;20689733;28;20042;-79
2022/09/03 06:57:12;;;;;;;9.80;5.47;;;;;;;20.96;48.37;100467.63;20656659;28;20049;-77
2022/09/03 07:07:12;;;;;;;8.93;5.05;;;;;;;20.99;48.32;100470.00;20668705;28;20531;-78
2022/09/03 07:17:14;;;;;;;6.43;4.70;;;;;;;21.00;47.61;100471.69;20700930;28;20115;-78
2022/09/03 07:27:14;;;;;;;8.30;4.20;;;;;;;21.08;47.33;100469.31;20679643;28;20184;-79
2022/09/03 07:37:15;;;;;;;6.10;3.45;;;;;;;21.13;47.34;100455.81;20696078;28;20057;-81
2022/09/03 07:47:17;;;;;;;7.57;3.22;;;;;;;21.15;46.53;100469.69;20693786;28;20116;-80
2022/09/03 07:57:17;;;;;;;6.33;2.87;;;;;;;21.19;46.10;100475.56;20679114;28;20052;-76
2022/09/03 08:07:17;;;;;;;5.70;2.80;;;;;;;21.37;46.18;100471.53;20675644;28;20066;-75
2022/09/03 08:17:18;;;;;;;4.07;2.50;;;;;;;21.56;46.69;100476.25;20655927;28;20069;-76
2022/09/03 08:27:23;;;;;;;4.80;2.88;;;;;;;21.72;47.60;100462.69;20660071;28;20578;-75
2022/09/03 08:37:27;;;;;;;7.78;2.70;;;;;;;21.85;48.01;100467.84;20650406;28;20131;-76
2022/09/03 08:47:33;;;;;;;6.60;2.72;;;;;;;21.99;48.70;100469.38;20669249;28;20136;-75
2022/09/03 08:57:45;;;;;;;4.30;2.50;;;;;;;22.12;49.77;100466.63;20662376;28;20389;-75
2022/09/03 09:07:55;;;;;;;3.77;2.47;;;;;;;22.26;49.67;100460.22;20658840;28;20516;-75
2022/09/03 09:18:02;;;;;;;7.93;2.70;;;;;;;22.44;49.39;100450.00;20659005;28;20066;-76
2022/09/03 09:28:20;;;;;;;11.35;3.15;;;;;;;22.55;50.83;100446.50;20675311;28;20046;-78
2022/09/03 09:38:34;;;;;;;8.70;3.63;;;;;;;22.70;52.22;100449.66;20696668;28;20054;-75
2022/09/03 09:48:47;;;;;;;4.65;2.65;;;;;;;22.83;50.87;100445.03;20681255;28;21958;-76
2022/09/03 09:58:47;;;;;;;5.63;3.00;;;;;;;22.94;44.37;100435.38;20681823;28;20159;-76
2022/09/03 10:08:48;;;;;;;4.63;3.00;;;;;;;23.05;43.30;100442.41;20691341;28;20547;-77
2022/09/03 10:18:59;;;;;;;5.78;2.85;;;;;;;23.09;44.37;100439.34;20697662;28;20623;-75
2022/09/03 10:29:04;;;;;;;6.50;2.20;;;;;;;23.24;42.70;100439.91;20685564;28;20045;-73
2022/09/03 10:39:13;;;;;;;5.75;2.72;;;;;;;23.34;42.89;100443.41;20676161;28;20508;-74
2022/09/03 10:49:47;;;;;;;6.25;2.38;;;;;;;23.32;42.57;100429.50;20689550;28;20038;-75
2022/09/03 10:59:50;;;;;;;7.53;2.50;;;;;;;23.28;41.57;100416.69;20686443;28;20496;-78
2022/09/03 11:10:02;;;;;;;3.03;2.65;;;;;;;23.54;43.34;100397.75;20692766;28;20054;-74
2022/09/03 11:20:14;;;;;;;3.25;2.88;;;;;;;23.58;40.25;100401.78;20695856;28;20076;-74
2022/09/03 11:30:23;;;;;;;5.00;2.23;;;;;;;23.85;38.94;100402.97;20688082;28;20046;-74
2022/09/03 11:40:39;;;;;;;3.45;1.98;;;;;;;23.78;37.76;100407.97;20690630;28;20042;-73
2022/09/03 11:50:51;;;;;;;3.47;1.23;;;;;;;23.79;34.97;100399.03;20667667;28;20133;-76
2022/09/03 12:00:53;;;;;;;5.15;1.80;;;;;;;24.10;36.29;100396.34;20661692;28;20073;-74
2022/09/03 12:11:22;;;;;;;3.72;2.10;;;;;;;24.07;35.60;100410.69;20664283;28;20595;-74
2022/09/03 12:21:24;;;;;;;2.40;1.50;;;;;;;24.27;34.91;100402.78;20657080;28;20076;-74
2022/09/03 12:31:28;;;;;;;2.08;1.88;;;;;;;24.40;36.48;100387.44;20662792;28;20057;-75
2022/09/03 12:41:30;;;;;;;5.88;1.95;;;;;;;24.35;35.15;100383.53;20641297;28;20112;-74
2022/09/03 12:51:33;;;;;;;3.47;1.95;;;;;;;24.43;35.36;100384.50;20667612;28;20041;-74
2022/09/03 13:01:42;;;;;;;4.22;1.90;;;;;;;24.43;34.98;100381.03;20657816;28;20100;-72
2022/09/03 13:11:43;;;;;;;3.88;1.90;;;;;;;24.52;35.72;100376.72;20681095;28;20050;-73
2022/09/03 13:21:46;;;;;;;4.37;1.83;;;;;;;24.54;35.75;100364.19;20652067;28;20038;-74
2022/09/03 13:31:57;;;;;;;1.90;1.70;;;;;;;24.49;35.39;100361.94;20659250;28;20050;-76
2022/09/03 13:42:32;;;;;;;2.63;1.70;;;;;;;24.66;35.49;100356.91;20667951;28;20128;-76
2022/09/03 13:52:46;;;;;;;2.92;1.60;;;;;;;24.72;35.23;100353.72;20656560;28;20109;-74
2022/09/03 14:03:15;;;;;;;3.25;1.63;;;;;;;24.87;35.65;100351.44;20662164;28;20052;-75
2022/09/03 14:13:53;;;;;;;2.92;1.83;;;;;;;24.76;35.56;100353.28;20646612;28;20049;-77
2022/09/03 14:24:25;;;;;;;2.45;1.70;;;;;;;24.80;35.55;100345.88;20626947;28;20049;-75
2022/09/03 14:34:37;;;;;;;3.08;1.55;;;;;;;24.80;34.85;100340.59;20624021;28;20072;-75
2022/09/03 14:44:51;;;;;;;2.17;1.63;;;;;;;25.07;35.33;100331.00;20652224;28;20045;-74
2022/09/03 14:55:10;;;;;;;3.40;1.63;;;;;;;25.17;34.17;100325.66;20623430;28;20145;-77
2022/09/03 15:05:15;;;;;;;1.52;1.42;;;;;;;25.17;34.20;100331.81;20630918;28;20052;-73
2022/09/03 15:15:21;;;;;;;2.25;1.25;;;;;;;25.02;34.44;100341.22;20658114;28;20092;-74
2022/09/03 15:25:33;;;;;;;4.03;1.65;;;;;;;24.96;34.86;100342.63;20644448;28;20073;-73
2022/09/03 15:35:36;;;;;;;;;;;;;;;25.01;34.74;100332.44;20639539;28;20050;-73
2022/09/03 15:45:48;;;;;;;5.90;1.50;;;;;;;25.23;34.21;100323.28;20629617;28;20311;-74
2022/09/03 15:56:06;;;;;;;5.45;1.80;;;;;;;25.44;33.96;100335.47;20645853;28;20049;-76
2022/09/03 16:06:23;;;;;;;3.58;1.60;;;;;;;25.70;33.54;100324.16;20642834;28;20103;-75
2022/09/03 16:16:30;;;;;;;3.17;1.63;;;;;;;26.12;33.08;100326.22;20636728;28;20069;-77
2022/09/03 16:26:35;;;;;;;4.85;2.10;;;;;;;26.11;33.12;100324.56;20664470;28;20476;-77
2022/09/03 16:37:02;;;;;;;4.35;2.08;;;;;;;25.72;34.29;100330.16;20628118;28;20042;-77
2022/09/03 16:47:30;;;;;;;2.85;2.22;;;;;;;25.24;35.06;100337.34;20647445;28;20124;-77
2022/09/03 16:57:57;;;;;;;3.80;2.10;;;;;;;24.77;36.28;100346.19;20651362;28;20140;-76
2022/09/03 17:08:27;;;;;;;5.82;2.47;;;;;;;24.43;37.14;100357.22;20633174;28;20054;-77
2022/09/03 17:18:41;;;;;;;18.23;2.67;;;;;;;24.30;37.57;100361.00;20625522;28;20050;-75
2022/09/03 17:28:54;;;;;;;4.30;2.65;;;;;;;24.22;38.01;100366.16;20681359;28;20067;-76
2022/09/03 17:39:42;;;;;;;6.65;3.08;;;;;;;24.12;38.38;100374.06;20657231;28;20538;-75
2022/09/03 17:49:53;;;;;;;6.15;2.63;;;;;;;24.28;38.37;100389.41;20658146;28;20107;-74
2022/09/03 18:00:07;;;;;;;5.32;2.70;;;;;;;24.30;39.01;100383.97;20647675;28;20097;-77
2022/09/03 18:10:29;;;;;;;5.40;3.20;;;;;;;24.26;39.26;100393.16;20654140;28;20581;-77
2022/09/03 20:16:41;;;;;;;8.95;3.13;;;;;;;24.26;40.56;100478.66;20666296;28;20547;-76
2022/09/03 20:27:00;;;;;;;6.22;2.88;;;;;;;24.25;40.41;100489.38;20639658;28;20038;-78
2022/09/03 20:37:03;;;;;;;3.47;2.88;;;;;;;24.26;40.95;100494.53;20653399;28;20069;-78
2022/09/03 20:47:26;;;;;;;5.30;2.78;;;;;;;24.22;40.88;100506.38;20685039;28;20487;-79
2022/09/03 20:57:41;;;;;;;3.65;2.97;;;;;;;24.21;40.91;100509.97;20698402;28;20144;-78
2022/09/03 21:07:44;;;;;;;3.33;2.55;;;;;;;24.22;41.47;100532.84;20693512;28;20536;-78
2022/09/03 21:17:58;;;;;;;4.95;2.70;;;;;;;24.19;41.44;100522.50;20708164;28;20069;-79
2022/09/03 21:28:04;;;;;;;3.65;2.88;;;;;;;24.18;41.42;100530.59;20685897;28;20526;-77
2022/09/03 21:38:07;;;;;;;3.53;2.78;;;;;;;24.16;41.63;100537.81;20666345;28;20084;-78
2022/09/03 21:48:15;;;;;;;3.15;2.72;;;;;;;24.14;41.81;100543.25;20683090;28;20118;-78
2022/09/03 21:58:52;;;;;;;3.75;2.58;;;;;;;24.12;41.53;100547.81;20681276;28;20129;-79
2022/09/03 22:09:10;;;;;;;4.05;2.20;;;;;;;24.11;41.79;100541.72;20678827;28;20427;-78
2022/09/03 22:19:11;;;;;;;3.50;2.38;;;;;;;24.11;42.16;100544.34;20674666;28;20038;-78
2022/09/03 22:29:26;;;;;;;2.72;2.35;;;;;;;24.09;41.97;100556.88;20675495;28;20080;-79
2022/09/03 22:39:39;;;;;;;5.18;2.80;;;;;;;24.08;42.23;100547.28;20678636;28;20054;-78
2022/09/03 22:50:04;;;;;;;2.67;2.42;;;;;;;24.08;42.28;100549.06;20679678;28;20104;-81
2022/09/03 23:00:09;;;;;;;3.83;2.40;;;;;;;24.07;42.62;100540.31;20680325;28;20053;-78
2022/09/03 23:10:17;;;;;;;2.60;2.40;;;;;;;24.07;42.62;100544.75;20670327;28;20052;-76
2022/09/03 23:20:23;;;;;;;2.42;2.22;;;;;;;24.06;42.79;100545.72;20681993;28;20081;-77
2022/09/03 23:30:23;;;;;;;2.33;2.13;;;;;;;24.06;42.66;100551.00;20666630;28;20046;-77
2022/09/03 23:40:33;;;;;;;2.72;2.30;;;;;;;24.04;42.69;100553.78;20667243;28;20629;-76
2022/09/03 23:50:46;;;;;;;2.65;2.00;;;;;;;24.04;42.73;100559.09;20672304;28;20073;-75
